Terminal Aerodrome Forecast
Issued by NWS Grand Junction, CO

Home | Current Version | Previous Version | Text Only | Print | Product List | Glossary On
Versions: 1 2 3 4 5 6 7 8 9 10 11 12 13 14 15 16 17 18 19 20 21 22 23 24 25 26 27 28 29 30 31 32 33 34 35
558
FTUS45 KGJT 012331 AAB
TAFGJT
TAF AMD
KGJT 012331Z 0200/0224 13005KT P6SM VCSH OVC110
     FM020200 12009KT P6SM VCSH OVC080
     FM020700 12005KT P6SM VCSH OVC070
     FM020900 13005KT P6SM OVC060
     FM021700 21004KT P6SM BKN050=

USA.gov is the U.S. government's official web portal to all federal, state and local government web resources and services.